createdAt,value
2023-04-20T00:01:51.553Z,7.18
2023-04-20T00:04:18.578Z,5.43
2023-04-20T00:06:45.817Z,4.68
2023-04-20T00:09:13.721Z,6.55
2023-04-20T00:11:42.056Z,10.23
2023-04-20T00:14:09.074Z,7.88
2023-04-20T00:16:36.106Z,8.52
2023-04-20T00:19:03.123Z,6.82
2023-04-20T00:21:30.244Z,7.25
2023-04-20T00:23:57.258Z,7.63
2023-04-20T00:26:24.247Z,5.82
2023-04-20T00:28:53.323Z,5.13
2023-04-20T00:31:20.751Z,6.57
2023-04-20T00:33:48.057Z,8.07
2023-04-20T00:36:15.094Z,7.43
2023-04-20T00:38:42.316Z,7.85
2023-04-20T00:41:09.267Z,5.65
2023-04-20T00:43:36.221Z,7.18
2023-04-20T00:46:04.611Z,7.68
2023-04-20T00:48:31.687Z,5.80
2023-04-20T00:50:58.883Z,7.53
2023-04-20T00:53:26.050Z,5.55
2023-04-20T00:55:53.451Z,5.75
2023-04-20T00:58:20.602Z,7.63
2023-04-20T01:00:47.599Z,6.13
2023-04-20T01:03:16.146Z,7.88
2023-04-20T01:05:43.290Z,7.75
2023-04-20T01:08:10.286Z,5.90
2023-04-20T01:10:37.286Z,6.78
2023-04-20T01:13:04.237Z,6.00
2023-04-20T01:15:31.325Z,5.15
2023-04-20T01:17:58.380Z,7.15
2023-04-20T01:20:26.756Z,5.43
2023-04-20T01:22:55.140Z,8.70
2023-04-20T01:25:22.393Z,8.27
2023-04-20T01:27:49.340Z,5.85
2023-04-20T01:30:16.296Z,6.20
2023-04-20T01:32:43.738Z,7.03
2023-04-20T01:35:10.907Z,6.30
2023-04-20T01:37:38.686Z,6.90
2023-04-20T01:40:10.229Z,6.55
2023-04-20T01:42:37.217Z,7.25
2023-04-20T01:45:05.359Z,6.78
2023-04-20T01:47:32.639Z,7.53
2023-04-20T01:49:59.670Z,7.53
2023-04-20T01:52:26.671Z,6.00
2023-04-20T01:54:53.574Z,6.93
2023-04-20T01:57:21.929Z,7.07
2023-04-20T01:59:49.038Z,6.43
2023-04-20T02:02:16.218Z,7.78
2023-04-20T02:04:43.203Z,9.60
2023-04-20T02:07:10.192Z,6.88
2023-04-20T02:09:37.158Z,6.20
2023-04-20T02:12:04.951Z,8.10
2023-04-20T02:14:33.264Z,6.30
2023-04-20T02:17:00.284Z,6.13
2023-04-20T02:19:27.220Z,5.15
2023-04-20T02:21:54.246Z,6.57
2023-04-20T02:24:21.255Z,5.63
2023-04-20T02:26:48.177Z,5.80
2023-04-20T02:29:15.346Z,6.20
2023-04-20T02:31:44.054Z,5.18
2023-04-20T02:34:11.202Z,7.22
2023-04-20T02:36:38.313Z,8.35
2023-04-20T02:39:05.261Z,10.52
2023-04-20T02:41:32.278Z,7.03
2023-04-20T02:43:59.222Z,7.82
2023-04-20T02:46:26.370Z,8.75
2023-04-20T02:48:54.723Z,6.53
2023-04-20T02:51:21.726Z,7.22
2023-04-20T02:53:48.725Z,6.95
2023-04-20T02:56:15.679Z,9.00
2023-04-20T02:58:42.631Z,8.18
2023-04-20T03:01:09.575Z,7.32
2023-04-20T03:03:36.878Z,5.30
2023-04-20T03:06:05.766Z,8.65
2023-04-20T03:08:32.757Z,9.25
2023-04-20T03:10:59.722Z,7.93
2023-04-20T03:13:26.661Z,5.30
2023-04-20T03:15:53.694Z,9.35
2023-04-20T03:18:20.651Z,7.50
2023-04-20T03:20:47.693Z,11.25
2023-04-20T03:23:16.046Z,7.38
2023-04-20T03:25:42.990Z,7.07
2023-04-20T03:28:09.987Z,9.68
2023-04-20T03:30:36.945Z,6.18
2023-04-20T03:33:04.082Z,9.07
2023-04-20T03:35:31.069Z,6.93
2023-04-20T03:37:58.070Z,6.25
2023-04-20T03:40:26.857Z,6.38
2023-04-20T03:42:53.827Z,7.70
2023-04-20T03:45:20.916Z,5.35
2023-04-20T03:47:48.296Z,7.20
2023-04-20T03:50:15.432Z,5.35
2023-04-20T03:52:42.367Z,7.43
2023-04-20T03:55:09.963Z,7.13
2023-04-20T03:57:38.381Z,9.25
2023-04-20T04:00:06.423Z,20.85
2023-04-20T04:02:34.065Z,10.57
2023-04-20T04:05:01.941Z,10.95
2023-04-20T04:07:28.950Z,10.68
2023-04-20T04:09:55.862Z,16.70
2023-04-20T04:12:22.829Z,15.43
2023-04-20T04:14:51.370Z,17.75
2023-04-20T04:17:18.447Z,15.93
2023-04-20T04:19:45.375Z,22.55
2023-04-20T04:22:12.348Z,14.10
2023-04-20T04:24:39.229Z,13.63
2023-04-20T04:27:06.167Z,10.27
2023-04-20T04:29:33.164Z,11.95
2023-04-20T04:32:01.515Z,13.05
2023-04-20T04:34:28.448Z,15.70
2023-04-20T04:36:55.374Z,11.65
2023-04-20T04:39:22.387Z,7.82
2023-04-20T04:41:49.373Z,11.10
2023-04-20T04:44:16.365Z,7.18
2023-04-20T04:46:43.412Z,10.98
2023-04-20T04:49:11.856Z,7.43
2023-04-20T04:51:38.859Z,8.98
2023-04-20T04:54:06.086Z,8.25
2023-04-20T04:56:33.090Z,8.52
2023-04-20T04:59:00.054Z,10.75
2023-04-20T05:01:27.025Z,8.10
2023-04-20T05:03:54.362Z,12.70
2023-04-20T05:06:22.812Z,7.68
2023-04-20T05:08:49.816Z,10.23
2023-04-20T05:11:16.756Z,6.50
2023-04-20T05:13:43.726Z,9.40
2023-04-20T05:16:10.902Z,8.82
2023-04-20T05:18:37.875Z,6.38
2023-04-20T05:21:05.166Z,11.02
2023-04-20T05:23:33.474Z,20.25
2023-04-20T05:26:00.415Z,13.73
2023-04-20T05:28:27.379Z,7.78
2023-04-20T05:30:54.377Z,9.38
2023-04-20T05:33:21.385Z,7.20
2023-04-20T05:35:48.624Z,9.20
2023-04-20T05:38:15.551Z,11.93
2023-04-20T05:40:43.982Z,9.68
2023-04-20T05:43:11.042Z,13.43
2023-04-20T05:45:38.492Z,9.65
2023-04-20T05:48:05.891Z,12.63
2023-04-20T05:50:32.896Z,15.45
2023-04-20T05:53:00.125Z,7.72
2023-04-20T05:55:27.060Z,13.18
2023-04-20T05:57:55.391Z,15.35
2023-04-20T06:00:25.209Z,13.68
2023-04-20T06:02:53.144Z,16.83
2023-04-20T06:05:20.240Z,16.67
2023-04-20T06:07:47.337Z,12.43
2023-04-20T06:10:14.435Z,13.27
2023-04-20T06:12:41.395Z,12.20
2023-04-20T06:15:10.563Z,12.00
2023-04-20T06:17:38.904Z,16.00
2023-04-20T06:20:07.154Z,14.25
2023-04-20T06:22:35.947Z,11.95
2023-04-20T06:25:03.591Z,7.70
2023-04-20T06:27:30.569Z,12.63
2023-04-20T06:30:00.452Z,13.18
2023-04-20T06:32:28.770Z,13.70
2023-04-20T06:34:55.842Z,9.65
2023-04-20T06:37:23.261Z,9.93
2023-04-20T06:40:00.056Z,10.73
2023-04-20T06:42:27.012Z,20.35
2023-04-20T06:44:54.359Z,8.35
2023-04-20T06:47:21.355Z,13.93
2023-04-20T06:49:49.616Z,8.07
2023-04-20T06:52:16.583Z,6.35
2023-04-20T06:54:43.548Z,7.25
2023-04-20T06:57:10.465Z,8.13
2023-04-20T06:59:37.389Z,10.88
2023-04-20T07:02:04.387Z,9.18
2023-04-20T07:04:31.438Z,8.52
2023-04-20T07:06:59.723Z,9.25
2023-04-20T07:09:26.696Z,8.65
2023-04-20T07:11:53.641Z,9.02
2023-04-20T07:14:20.535Z,12.10
2023-04-20T07:16:47.559Z,10.35
2023-04-20T07:19:14.566Z,9.73
2023-04-20T07:21:41.464Z,8.48
2023-04-20T07:24:09.854Z,9.60
2023-04-20T07:26:36.767Z,8.10
2023-04-20T07:29:03.770Z,10.93
2023-04-20T07:31:31.525Z,11.65
2023-04-20T07:33:59.332Z,10.65
2023-04-20T07:36:26.399Z,13.57
2023-04-20T07:38:53.453Z,10.65
2023-04-20T07:41:21.824Z,9.77
2023-04-20T07:43:48.766Z,13.82
2023-04-20T07:46:20.556Z,10.30
2023-04-20T07:48:47.799Z,10.00
2023-04-20T07:51:14.802Z,10.35
2023-04-20T07:53:42.224Z,11.23
2023-04-20T07:56:09.175Z,11.27
2023-04-20T07:58:37.598Z,10.88
2023-04-20T08:01:04.858Z,9.55
2023-04-20T08:03:31.918Z,11.25
2023-04-20T08:05:59.201Z,8.00
2023-04-20T08:08:26.294Z,9.20
2023-04-20T08:10:53.238Z,9.23
2023-04-20T08:13:20.134Z,11.25
2023-04-20T08:15:49.414Z,8.63
2023-04-20T08:18:16.448Z,11.05
2023-04-20T08:20:43.350Z,9.77
2023-04-20T08:23:10.420Z,11.82
2023-04-20T08:25:39.217Z,8.90
2023-04-20T08:28:08.829Z,8.70
2023-04-20T08:30:40.183Z,8.52
2023-04-20T08:33:08.521Z,8.02
2023-04-20T08:35:35.570Z,8.55
2023-04-20T08:38:02.507Z,9.95
2023-04-20T08:40:30.841Z,10.55
2023-04-20T08:42:58.380Z,10.32
2023-04-20T08:45:25.358Z,10.55
2023-04-20T08:47:52.700Z,12.18
2023-04-20T08:50:21.008Z,9.23
2023-04-20T08:52:48.005Z,8.77
2023-04-20T08:55:16.254Z,10.10
2023-04-20T08:57:43.234Z,10.82
2023-04-20T09:00:13.603Z,10.43
2023-04-20T09:02:49.573Z,12.75
2023-04-20T09:05:24.489Z,11.27
2023-04-20T09:07:53.246Z,11.75
2023-04-20T09:10:20.331Z,8.95
2023-04-20T09:12:47.267Z,10.98
2023-04-20T09:15:25.131Z,8.85
2023-04-20T09:17:52.194Z,9.27
2023-04-20T09:20:28.217Z,9.95
2023-04-20T09:22:56.635Z,12.73
2023-04-20T09:25:25.867Z,16.33
2023-04-20T09:27:58.415Z,8.93
2023-04-20T09:30:25.878Z,8.80
2023-04-20T09:33:02.134Z,12.50
2023-04-20T09:35:29.080Z,10.70
2023-04-20T09:37:57.394Z,10.30
2023-04-20T09:40:25.520Z,11.82
2023-04-20T09:42:53.865Z,10.45
2023-04-20T09:45:21.454Z,10.30
2023-04-20T09:47:48.578Z,8.45
2023-04-20T09:50:29.069Z,9.77
2023-04-20T09:53:00.663Z,10.43
2023-04-20T09:55:30.341Z,12.43
2023-04-20T09:57:57.296Z,8.88
2023-04-20T10:00:24.403Z,10.57
2023-04-20T10:02:51.563Z,8.77
2023-04-20T10:05:18.678Z,9.23
2023-04-20T10:07:45.652Z,8.60
2023-04-20T10:10:15.564Z,10.57
2023-04-20T10:12:49.459Z,8.98
2023-04-20T10:15:16.564Z,9.05
2023-04-20T10:17:44.196Z,9.27
2023-04-20T10:20:21.926Z,9.10
2023-04-20T10:22:50.872Z,11.50
2023-04-20T10:25:20.728Z,10.82
2023-04-20T10:27:55.589Z,13.45
2023-04-20T10:30:23.656Z,10.77
2023-04-20T10:32:50.907Z,8.82
2023-04-20T10:35:17.869Z,9.68
2023-04-20T10:37:49.385Z,8.77
2023-04-20T10:40:16.650Z,9.40
2023-04-20T10:42:45.585Z,12.40
2023-04-20T10:45:12.892Z,12.95
2023-04-20T10:47:39.898Z,13.60
2023-04-20T10:50:08.634Z,11.20
2023-04-20T10:52:36.760Z,9.18
2023-04-20T10:55:04.305Z,17.63
2023-04-20T10:57:31.294Z,8.02
2023-04-20T10:59:59.632Z,12.18
2023-04-20T11:02:26.834Z,8.13
2023-04-20T11:04:54.024Z,8.82
2023-04-20T11:07:21.012Z,7.78
2023-04-20T11:09:54.016Z,7.47
2023-04-20T11:12:21.050Z,7.13
2023-04-20T11:14:54.437Z,8.82
2023-04-20T11:17:32.082Z,8.45
2023-04-20T11:20:05.906Z,9.35
2023-04-20T11:22:32.948Z,7.65
2023-04-20T11:25:04.163Z,10.73
2023-04-20T11:27:31.112Z,13.10
2023-04-20T11:29:58.779Z,8.32
2023-04-20T11:32:27.533Z,8.55
2023-04-20T11:35:06.590Z,8.63
2023-04-20T11:37:34.610Z,8.52
2023-04-20T11:40:03.195Z,8.02
2023-04-20T11:42:30.416Z,8.60
2023-04-20T11:44:57.530Z,11.15
2023-04-20T11:47:24.587Z,9.43
2023-04-20T11:49:53.264Z,9.57
2023-04-20T11:52:20.383Z,11.35
2023-04-20T11:54:47.344Z,9.18
2023-04-20T11:57:14.758Z,11.05
2023-04-20T11:59:41.814Z,8.75
2023-04-20T12:02:08.896Z,8.45
2023-04-20T12:04:36.508Z,9.57
2023-04-20T12:07:05.286Z,12.68
2023-04-20T12:09:32.864Z,7.90
2023-04-20T12:11:59.772Z,8.32
2023-04-20T12:14:26.687Z,8.13
2023-04-20T12:16:53.588Z,8.00
2023-04-20T12:19:20.654Z,9.77
2023-04-20T12:21:47.704Z,10.27
2023-04-20T12:24:16.084Z,11.68
2023-04-20T12:26:43.190Z,7.75
2023-04-20T12:29:10.165Z,8.43
2023-04-20T12:31:37.198Z,8.38
2023-04-20T12:34:04.445Z,14.02
2023-04-20T12:36:31.442Z,8.63
2023-04-20T12:38:58.381Z,11.15
2023-04-20T12:41:26.750Z,10.05
2023-04-20T12:43:53.693Z,9.80
2023-04-20T12:46:20.660Z,8.52
2023-04-20T12:48:47.590Z,7.80
2023-04-20T12:51:14.981Z,8.50
2023-04-20T12:53:42.085Z,9.60
2023-04-20T12:56:09.072Z,9.43
2023-04-20T12:58:37.492Z,8.75
2023-04-20T13:01:04.455Z,9.25
2023-04-20T13:03:31.707Z,11.75
2023-04-20T13:05:59.264Z,11.57
2023-04-20T13:08:26.330Z,9.52
2023-04-20T13:10:53.272Z,9.85
2023-04-20T13:13:20.182Z,12.75
2023-04-20T13:15:48.499Z,10.85
2023-04-20T13:18:15.484Z,9.27
2023-04-20T13:20:42.498Z,8.93
2023-04-20T13:23:09.505Z,9.02
2023-04-20T13:25:36.550Z,11.73
2023-04-20T13:28:03.771Z,11.75
2023-04-20T13:30:31.286Z,9.15
2023-04-20T13:33:00.013Z,10.77
2023-04-20T13:35:27.154Z,11.25
2023-04-20T13:37:54.103Z,10.30
2023-04-20T13:40:21.073Z,10.98
2023-04-20T13:42:47.980Z,13.57
2023-04-20T13:45:15.080Z,12.57
2023-04-20T13:47:41.985Z,13.90
2023-04-20T13:50:10.965Z,12.95
2023-04-20T13:52:38.010Z,12.75
2023-04-20T13:55:05.350Z,14.55
2023-04-20T13:57:32.360Z,15.20
2023-04-20T13:59:59.373Z,16.30
2023-04-20T14:02:26.737Z,13.73
2023-04-20T14:04:54.002Z,16.80
2023-04-20T14:07:22.622Z,16.50
2023-04-20T14:09:49.667Z,15.68
2023-04-20T14:12:17.215Z,14.45
2023-04-20T14:14:44.086Z,17.30
2023-04-20T14:17:11.138Z,16.35
2023-04-20T14:19:38.077Z,16.88
2023-04-20T14:22:05.061Z,16.38
2023-04-20T14:24:33.303Z,15.35
2023-04-20T14:27:00.203Z,14.25
2023-04-20T14:29:27.392Z,13.98
2023-04-20T14:31:54.398Z,13.40
2023-04-20T14:34:21.370Z,13.48
2023-04-20T14:36:48.487Z,13.18
2023-04-20T14:39:15.585Z,12.25
2023-04-20T14:41:44.224Z,12.52
2023-04-20T14:44:11.184Z,14.85
2023-04-20T14:46:41.595Z,14.65
2023-04-20T14:49:09.277Z,13.10
2023-04-20T14:51:36.218Z,11.57
2023-04-20T14:54:05.555Z,9.60
2023-04-20T14:56:32.484Z,10.73
2023-04-20T14:59:01.029Z,10.57
2023-04-20T15:01:28.092Z,11.07
2023-04-20T15:03:55.448Z,11.65
2023-04-20T15:06:22.695Z,11.20
2023-04-20T15:08:49.924Z,11.57
2023-04-20T15:11:16.871Z,10.80
2023-04-20T15:13:43.876Z,9.77
2023-04-20T15:16:12.240Z,11.50
2023-04-20T15:18:39.343Z,11.07
2023-04-20T15:21:06.593Z,10.80
2023-04-20T15:23:34.185Z,11.27
2023-04-20T15:26:01.518Z,10.90
2023-04-20T15:28:28.611Z,12.02
2023-04-20T15:30:55.752Z,10.73
2023-04-20T15:33:24.201Z,11.60
2023-04-20T15:35:51.281Z,10.32
2023-04-20T15:38:18.360Z,8.35
2023-04-20T15:40:45.270Z,5.60
2023-04-20T15:43:12.236Z,6.75
2023-04-20T15:45:39.189Z,6.10
2023-04-20T15:48:06.477Z,6.43
2023-04-20T15:50:35.074Z,6.93
2023-04-20T15:53:02.358Z,5.95
2023-04-20T15:55:29.474Z,6.50
2023-04-20T15:57:56.389Z,6.15
2023-04-20T16:00:23.513Z,6.75
2023-04-20T16:02:50.764Z,8.93
2023-04-20T16:05:17.850Z,7.45
2023-04-20T16:07:46.298Z,6.25
2023-04-20T16:10:13.307Z,7.00
2023-04-20T16:12:40.557Z,6.68
2023-04-20T16:15:08.534Z,7.93
2023-04-20T16:17:35.533Z,6.75
2023-04-20T16:20:02.760Z,6.15
2023-04-20T16:22:29.731Z,6.53
2023-04-20T16:24:58.204Z,7.03
2023-04-20T16:27:25.220Z,7.28
2023-04-20T16:29:52.168Z,6.28
2023-04-20T16:32:19.331Z,5.50
2023-04-20T16:34:46.262Z,5.65
2023-04-20T16:37:13.278Z,6.18
2023-04-20T16:39:40.744Z,5.70
2023-04-20T16:42:09.144Z,6.22
2023-04-20T16:44:36.124Z,5.47
2023-04-20T16:47:03.263Z,6.05
2023-04-20T16:49:30.553Z,6.90
2023-04-20T16:51:57.549Z,6.60
2023-04-20T16:54:24.525Z,6.80
2023-04-20T16:56:51.505Z,6.65
2023-04-20T16:59:19.956Z,6.10
2023-04-20T17:01:49.359Z,6.63
2023-04-20T17:04:16.577Z,7.30
2023-04-20T17:06:43.617Z,7.47
2023-04-20T17:09:10.539Z,7.05
2023-04-20T17:11:37.638Z,6.78
2023-04-20T17:14:05.038Z,7.10
2023-04-20T17:16:33.464Z,7.18
2023-04-20T17:19:00.513Z,6.88
2023-04-20T17:21:27.690Z,7.60
2023-04-20T17:23:54.877Z,6.93
2023-04-20T17:26:22.032Z,7.88
2023-04-20T17:28:49.030Z,7.90
2023-04-20T17:31:16.031Z,7.85
2023-04-20T17:33:44.548Z,6.82
2023-04-20T17:36:11.806Z,9.07
2023-04-20T17:38:38.805Z,7.20
2023-04-20T17:41:05.904Z,7.20
2023-04-20T17:43:32.903Z,7.53
2023-04-20T17:45:59.933Z,6.53
2023-04-20T17:48:27.035Z,7.68
2023-04-20T17:50:56.791Z,7.15
2023-04-20T17:53:25.127Z,8.07
2023-04-20T17:55:52.023Z,7.60
2023-04-20T17:58:19.163Z,8.23
2023-04-20T18:00:46.133Z,8.35
2023-04-20T18:03:13.229Z,9.15
2023-04-20T18:05:40.530Z,8.75
2023-04-20T18:08:08.879Z,11.65
2023-04-20T18:10:36.051Z,13.60
2023-04-20T18:13:03.049Z,10.73
2023-04-20T18:15:30.254Z,11.65
2023-04-20T18:17:57.362Z,10.70
2023-04-20T18:20:24.452Z,11.55
2023-04-20T18:22:51.474Z,13.40
2023-04-20T18:25:19.981Z,13.95
2023-04-20T18:27:46.996Z,13.18
2023-04-20T18:30:14.563Z,11.23
2023-04-20T18:32:41.602Z,11.10
2023-04-20T18:35:09.506Z,12.30
2023-04-20T18:37:36.412Z,12.55
2023-04-20T18:40:03.710Z,12.20
2023-04-20T18:42:32.017Z,12.18
2023-04-20T18:44:59.033Z,12.82
2023-04-20T18:47:26.136Z,14.48
2023-04-20T18:49:53.055Z,13.90
2023-04-20T18:52:20.111Z,13.10
2023-04-20T18:54:47.112Z,15.90
2023-04-20T18:57:14.478Z,14.93
2023-04-20T18:59:42.968Z,15.27
2023-04-20T19:02:10.075Z,16.38
2023-04-20T19:04:37.188Z,16.25
2023-04-20T19:07:04.151Z,17.25
2023-04-20T19:09:31.128Z,16.48
2023-04-20T19:11:58.116Z,19.80
2023-04-20T19:14:25.049Z,19.33
2023-04-20T19:16:53.714Z,21.40
2023-04-20T19:19:20.734Z,18.40
2023-04-20T19:21:47.685Z,19.45
2023-04-20T19:24:14.678Z,21.02
2023-04-20T19:26:41.749Z,21.50
2023-04-20T19:29:08.682Z,18.60
2023-04-20T19:31:35.818Z,23.50
2023-04-20T19:34:04.180Z,26.23
2023-04-20T19:36:31.346Z,33.28
2023-04-20T19:38:58.419Z,36.60
2023-04-20T19:41:25.419Z,30.73
2023-04-20T19:43:52.962Z,28.88
2023-04-20T19:46:20.088Z,20.77
2023-04-20T19:48:47.140Z,18.15
2023-04-20T19:51:15.555Z,15.98
2023-04-20T19:53:42.509Z,15.80
2023-04-20T19:56:09.471Z,14.02
2023-04-20T19:58:36.768Z,15.70
2023-04-20T20:01:03.872Z,13.80
2023-04-20T20:03:31.155Z,14.10
2023-04-20T20:05:58.273Z,13.88
2023-04-20T20:08:26.806Z,14.15
2023-04-20T20:10:53.879Z,15.13
2023-04-20T20:13:20.876Z,13.65
2023-04-20T20:15:48.040Z,14.65
2023-04-20T20:18:15.161Z,15.98
2023-04-20T20:20:42.113Z,15.18
2023-04-20T20:23:09.043Z,14.48
2023-04-20T20:25:37.447Z,16.48
2023-04-20T20:28:04.655Z,15.10
2023-04-20T20:30:31.841Z,13.18
2023-04-20T20:32:59.253Z,12.27
2023-04-20T20:35:27.212Z,14.45
2023-04-20T20:37:54.374Z,13.30
2023-04-20T20:40:21.402Z,13.80
2023-04-20T20:42:49.797Z,13.38
2023-04-20T20:45:17.001Z,15.13
2023-04-20T20:47:44.857Z,14.65
2023-04-20T20:50:12.810Z,14.38
2023-04-20T20:52:39.793Z,13.10
2023-04-20T20:55:07.670Z,12.63
2023-04-20T20:57:36.225Z,12.73
2023-04-20T21:00:05.879Z,12.68
2023-04-20T21:02:32.947Z,13.80
2023-04-20T21:05:00.014Z,13.15
2023-04-20T21:07:27.240Z,14.10
2023-04-20T21:09:54.220Z,15.25
2023-04-20T21:12:21.188Z,13.25
2023-04-20T21:14:48.178Z,15.23
2023-04-20T21:17:16.547Z,15.88
2023-04-20T21:19:43.675Z,13.82
2023-04-20T21:22:11.004Z,13.73
2023-04-20T21:24:37.994Z,14.65
2023-04-20T21:27:05.009Z,12.77
2023-04-20T21:29:32.015Z,13.80
2023-04-20T21:31:59.024Z,13.27
2023-04-20T21:34:27.378Z,14.65
2023-04-20T21:36:54.546Z,12.35
2023-04-20T21:39:21.517Z,13.38
2023-04-20T21:41:48.872Z,14.05
2023-04-20T21:44:15.885Z,14.23
2023-04-20T21:46:42.930Z,12.68
2023-04-20T21:49:09.973Z,16.23
2023-04-20T21:51:38.380Z,15.65
2023-04-20T21:54:05.721Z,14.05
2023-04-20T21:56:32.697Z,13.88
2023-04-20T21:58:59.655Z,16.70
2023-04-20T22:01:26.775Z,13.30
2023-04-20T22:03:53.976Z,14.05
2023-04-20T22:06:21.226Z,13.32
2023-04-20T22:08:49.615Z,14.40
2023-04-20T22:11:16.567Z,13.55
2023-04-20T22:13:43.544Z,14.05
2023-04-20T22:16:10.552Z,16.25
2023-04-20T22:18:37.545Z,16.23
2023-04-20T22:21:04.607Z,15.85
2023-04-20T22:23:31.566Z,17.98
2023-04-20T22:25:59.915Z,14.50
2023-04-20T22:28:26.904Z,12.85
2023-04-20T22:30:53.833Z,15.40
2023-04-20T22:33:20.874Z,17.52
2023-04-20T22:35:47.815Z,13.63
2023-04-20T22:38:14.984Z,14.15
2023-04-20T22:40:42.031Z,12.23
2023-04-20T22:43:10.513Z,12.82
2023-04-20T22:45:37.522Z,13.38
2023-04-20T22:48:04.973Z,11.93
2023-04-20T22:50:32.108Z,13.13
2023-04-20T22:52:59.166Z,11.95
2023-04-20T22:55:26.365Z,13.23
2023-04-20T22:57:53.363Z,12.38
2023-04-20T23:00:21.897Z,13.88
2023-04-20T23:02:49.448Z,13.13
2023-04-20T23:05:16.789Z,12.30
2023-04-20T23:07:43.762Z,12.32
2023-04-20T23:10:10.975Z,13.73
2023-04-20T23:12:38.016Z,12.88
2023-04-20T23:15:05.629Z,12.48
2023-04-20T23:17:34.040Z,13.57
2023-04-20T23:20:01.056Z,11.90
2023-04-20T23:22:28.030Z,11.57
2023-04-20T23:24:55.050Z,13.77
2023-04-20T23:27:22.033Z,12.32
2023-04-20T23:29:49.080Z,12.88
2023-04-20T23:32:16.082Z,13.18
2023-04-20T23:34:44.428Z,13.57
2023-04-20T23:37:12.033Z,13.35
2023-04-20T23:39:39.174Z,13.73
2023-04-20T23:42:06.312Z,14.50
2023-04-20T23:44:33.468Z,13.05
2023-04-20T23:47:00.752Z,14.00
2023-04-20T23:49:27.714Z,15.35
2023-04-20T23:51:56.063Z,15.10
2023-04-20T23:54:23.046Z,14.95
2023-04-20T23:56:50.258Z,14.52
2023-04-20T23:59:17.494Z,13.13
